Terminal Aerodrome Forecast
Issued by NWS

Home | Current Version | Previous Version | Text Only | Print | Product List | Glossary On
Versions: 1 2 3 4 5 6 7 8 9 10 11 12 13 14 15 16 17 18 19 20 21 22 23 24 25 26 27 28 29 30 31
000
FTUS46 KOTX 270533
TAFSFF
TAF
KSFF 270533Z 2706/2806 00000KT P6SM BKN030 OVC050
     FM270800 00000KT 3SM BCFG SCT001 BKN050
     FM271000 VRB02KT 1/2SM FZFG VV002
     FM271600 24004KT 3SM BR SCT005 OVC015
     FM271800 22006KT P6SM VCSH SCT010 OVC030
     FM280400 19003KT 5SM -SN BKN013 OVC020=

USA.gov is the U.S. government's official web portal to all federal, state and local government web resources and services.